createdAt,value
2022-08-28T00:02:21.235Z,27.70
2022-08-28T00:05:11.428Z,31.90
2022-08-28T00:08:02.162Z,26.57
2022-08-28T00:10:52.065Z,27.57
2022-08-28T00:13:40.775Z,27.07
2022-08-28T00:16:30.440Z,24.47
2022-08-28T00:19:20.660Z,25.47
2022-08-28T00:22:09.473Z,22.23
2022-08-28T00:24:58.044Z,26.70
2022-08-28T00:27:52.706Z,24.90
2022-08-28T00:30:44.217Z,23.70
2022-08-28T00:33:35.641Z,25.10
2022-08-28T00:36:24.234Z,22.73
2022-08-28T00:39:12.790Z,31.93
2022-08-28T00:42:01.569Z,23.90
2022-08-28T00:44:51.852Z,24.50
2022-08-28T00:47:40.979Z,25.50
2022-08-28T00:50:52.282Z,26.40
2022-08-28T00:53:40.267Z,22.17
2022-08-28T00:56:30.374Z,23.20
2022-08-28T00:59:21.881Z,23.20
2022-08-28T01:02:11.850Z,23.20
2022-08-28T01:05:00.428Z,21.80
2022-08-28T01:07:49.253Z,22.90
2022-08-28T01:10:38.387Z,22.57
2022-08-28T01:13:27.142Z,21.60
2022-08-28T01:16:16.657Z,18.43
2022-08-28T01:19:09.643Z,23.03
2022-08-28T01:22:04.066Z,22.30
2022-08-28T01:24:55.317Z,26.13
2022-08-28T01:27:44.015Z,23.13
2022-08-28T01:30:32.864Z,26.60
2022-08-28T01:33:24.295Z,23.33
2022-08-28T01:36:17.743Z,20.97
2022-08-28T01:39:10.091Z,21.00
2022-08-28T01:42:00.678Z,26.77
2022-08-28T01:44:50.098Z,29.20
2022-08-28T01:47:38.725Z,25.47
2022-08-28T01:50:27.680Z,26.33
2022-08-28T01:53:18.430Z,26.73
2022-08-28T01:56:12.072Z,27.50
2022-08-28T01:59:04.677Z,26.33
2022-08-28T02:01:53.917Z,37.47
2022-08-28T02:04:46.170Z,32.10
2022-08-28T02:07:36.661Z,31.90
2022-08-28T02:10:26.091Z,27.80
2022-08-28T02:13:15.935Z,31.07
2022-08-28T02:16:09.860Z,29.57
2022-08-28T02:18:58.670Z,27.37
2022-08-28T02:21:47.484Z,29.63
2022-08-28T02:24:36.154Z,28.53
2022-08-28T02:27:25.766Z,27.47
2022-08-28T02:30:16.111Z,27.53
2022-08-28T02:33:06.060Z,24.03
2022-08-28T02:35:54.610Z,24.00
2022-08-28T02:38:44.005Z,23.30
2022-08-28T02:41:32.921Z,24.20
2022-08-28T02:44:21.608Z,22.47
2022-08-28T02:47:10.462Z,24.60
2022-08-28T02:50:00.590Z,22.70
2022-08-28T02:52:49.338Z,23.30
2022-08-28T02:55:37.912Z,24.23
2022-08-28T02:58:27.648Z,29.13
2022-08-28T03:01:16.511Z,24.73
2022-08-28T03:04:05.458Z,30.73
2022-08-28T03:06:55.429Z,27.40
2022-08-28T03:09:44.829Z,23.93
2022-08-28T03:12:33.408Z,39.90
2022-08-28T03:15:22.244Z,26.23
2022-08-28T03:18:11.128Z,40.80
2022-08-28T03:21:00.186Z,26.00
2022-08-28T03:23:50.233Z,33.63
2022-08-28T03:26:38.818Z,29.60
2022-08-28T03:29:27.424Z,28.73
2022-08-28T03:32:15.971Z,28.50
2022-08-28T03:35:05.499Z,27.03
2022-08-28T03:37:54.022Z,24.93
2022-08-28T03:40:46.214Z,24.93
2022-08-28T03:43:34.812Z,25.50
2022-08-28T03:46:24.703Z,24.20
2022-08-28T03:49:13.467Z,23.87
2022-08-28T03:52:02.015Z,23.80
2022-08-28T03:54:50.660Z,25.80
2022-08-28T03:57:40.805Z,29.17
2022-08-28T04:00:29.416Z,28.03
2022-08-28T04:03:18.202Z,29.63
2022-08-28T04:06:07.265Z,28.67
2022-08-28T04:09:00.128Z,28.03
2022-08-28T04:11:48.943Z,27.10
2022-08-28T04:14:38.978Z,27.27
2022-08-28T04:17:27.601Z,25.83
2022-08-28T04:20:16.121Z,25.77
2022-08-28T04:23:05.778Z,27.57
2022-08-28T04:25:54.612Z,27.77
2022-08-28T04:28:43.848Z,26.70
2022-08-28T04:31:34.479Z,28.80
2022-08-28T04:34:23.099Z,24.83
2022-08-28T04:37:12.261Z,24.50
2022-08-28T04:40:01.410Z,22.30
2022-08-28T04:42:52.140Z,24.13
2022-08-28T04:45:41.635Z,24.00
2022-08-28T04:48:32.402Z,22.60
2022-08-28T04:51:21.542Z,22.83
2022-08-28T04:54:10.757Z,22.40
2022-08-28T04:56:59.917Z,22.70
2022-08-28T04:59:48.463Z,23.10
2022-08-28T05:02:37.253Z,20.37
2022-08-28T05:05:27.289Z,21.63
2022-08-28T05:08:17.962Z,21.07
2022-08-28T05:11:33.067Z,23.03
2022-08-28T05:14:22.741Z,21.53
2022-08-28T05:17:13.370Z,23.37
2022-08-28T05:20:02.402Z,22.67
2022-08-28T05:22:52.370Z,20.43
2022-08-28T05:25:43.603Z,21.23
2022-08-28T05:28:32.141Z,22.50
2022-08-28T05:31:22.153Z,20.07
2022-08-28T05:34:11.819Z,19.60
2022-08-28T05:37:00.389Z,20.07
2022-08-28T05:39:50.276Z,21.60
2022-08-28T05:42:39.214Z,19.80
2022-08-28T05:45:27.793Z,19.97
2022-08-28T05:48:16.654Z,20.03
2022-08-28T05:51:06.655Z,17.63
2022-08-28T05:53:57.464Z,18.87
2022-08-28T05:56:47.637Z,17.67
2022-08-28T05:59:36.161Z,21.37
2022-08-28T06:02:24.746Z,19.70
2022-08-28T06:05:14.757Z,19.93
2022-08-28T06:08:03.476Z,20.20
2022-08-28T06:10:52.021Z,18.40
2022-08-28T06:13:42.309Z,19.67
2022-08-28T06:16:35.533Z,18.47
2022-08-28T06:19:25.715Z,18.03
2022-08-28T06:22:14.833Z,17.97
2022-08-28T06:25:07.454Z,18.80
2022-08-28T06:27:56.502Z,18.23
2022-08-28T06:31:17.851Z,18.23
2022-08-28T06:33:55.248Z,17.87
2022-08-28T06:36:44.203Z,18.10
2022-08-28T06:39:32.751Z,20.77
2022-08-28T06:42:21.447Z,16.60
2022-08-28T06:45:10.956Z,17.37
2022-08-28T06:48:00.784Z,17.77
2022-08-28T06:50:52.377Z,17.90
2022-08-28T06:53:42.114Z,17.53
2022-08-28T06:56:31.446Z,16.53
2022-08-28T06:59:20.068Z,15.33
2022-08-28T07:02:09.257Z,13.83
2022-08-28T07:04:59.275Z,15.07
2022-08-28T07:07:47.796Z,14.10
2022-08-28T07:10:36.336Z,14.80
2022-08-28T07:13:25.003Z,17.53
2022-08-28T07:16:15.090Z,15.57
2022-08-28T07:19:05.481Z,12.57
2022-08-28T07:21:55.432Z,15.27
2022-08-28T07:24:44.016Z,13.33
2022-08-28T07:27:32.907Z,11.50
2022-08-28T07:30:21.879Z,12.57
2022-08-28T07:33:10.434Z,18.83
2022-08-28T07:35:59.337Z,11.30
2022-08-28T07:38:50.215Z,12.63
2022-08-28T07:41:42.725Z,11.53
2022-08-28T07:44:49.770Z,11.63
2022-08-28T07:47:38.742Z,11.90
2022-08-28T07:50:27.439Z,11.10
2022-08-28T07:53:15.967Z,11.83
2022-08-28T07:56:06.813Z,10.30
2022-08-28T07:58:56.211Z,11.53
2022-08-28T08:01:47.934Z,10.80
2022-08-28T08:04:36.538Z,11.27
2022-08-28T08:07:25.078Z,10.43
2022-08-28T08:10:14.845Z,9.43
2022-08-28T08:13:09.914Z,10.17
2022-08-28T08:16:07.250Z,9.67
2022-08-28T08:18:56.499Z,9.50
2022-08-28T08:21:46.367Z,12.10
2022-08-28T08:24:35.349Z,9.90
2022-08-28T08:27:24.335Z,12.70
2022-08-28T08:30:14.804Z,9.87
2022-08-28T08:33:03.323Z,8.67
2022-08-28T08:35:52.110Z,9.37
2022-08-28T08:38:40.697Z,8.53
2022-08-28T08:41:32.752Z,9.87
2022-08-28T08:44:28.011Z,10.33
2022-08-28T08:47:32.533Z,9.43
2022-08-28T08:50:23.267Z,10.00
2022-08-28T08:53:20.989Z,10.20
2022-08-28T08:56:13.653Z,10.27
2022-08-28T08:59:04.570Z,9.83
2022-08-28T09:02:01.926Z,9.30
2022-08-28T09:04:55.981Z,9.83
2022-08-28T09:07:53.081Z,8.70
2022-08-28T09:10:45.079Z,14.70
2022-08-28T09:13:41.316Z,9.70
2022-08-28T09:16:32.815Z,8.90
2022-08-28T09:19:22.724Z,10.40
2022-08-28T09:22:12.939Z,7.93
2022-08-28T09:25:01.535Z,8.90
2022-08-28T09:27:52.750Z,11.17
2022-08-28T09:30:42.949Z,9.00
2022-08-28T09:33:37.794Z,8.90
2022-08-28T09:36:31.935Z,8.87
2022-08-28T09:39:23.671Z,8.90
2022-08-28T09:42:36.271Z,9.47
2022-08-28T09:45:25.959Z,8.90
2022-08-28T09:48:22.436Z,8.53
2022-08-28T09:51:13.545Z,8.17
2022-08-28T09:54:05.846Z,10.23
2022-08-28T09:56:56.088Z,8.27
2022-08-28T09:59:44.639Z,7.80
2022-08-28T10:02:42.116Z,8.47
2022-08-28T10:05:38.658Z,7.20
2022-08-28T10:08:35.840Z,9.23
2022-08-28T10:11:31.579Z,7.70
2022-08-28T10:14:38.333Z,8.40
2022-08-28T10:17:31.474Z,7.73
2022-08-28T10:20:26.590Z,9.30
2022-08-28T10:23:19.148Z,9.40
2022-08-28T10:26:21.288Z,9.43
2022-08-28T10:29:22.577Z,7.90
2022-08-28T10:32:25.786Z,8.07
2022-08-28T10:35:17.265Z,7.87
2022-08-28T10:38:10.828Z,7.80
2022-08-28T10:41:04.109Z,7.90
2022-08-28T10:43:54.545Z,8.03
2022-08-28T10:46:45.699Z,8.50
2022-08-28T10:49:39.335Z,9.57
2022-08-28T10:52:32.668Z,8.10
2022-08-28T10:55:25.075Z,6.80
2022-08-28T10:58:23.858Z,6.33
2022-08-28T11:01:15.002Z,7.27
2022-08-28T11:04:07.602Z,7.73
2022-08-28T11:06:59.724Z,7.37
2022-08-28T11:09:49.852Z,7.93
2022-08-28T11:12:43.690Z,6.80
2022-08-28T11:15:52.064Z,7.33
2022-08-28T11:19:00.315Z,9.80
2022-08-28T11:21:55.236Z,7.27
2022-08-28T11:24:48.753Z,7.93
2022-08-28T11:27:39.211Z,8.00
2022-08-28T11:30:32.829Z,6.30
2022-08-28T11:33:40.297Z,7.00
2022-08-28T11:36:58.203Z,7.43
2022-08-28T11:39:48.063Z,7.20
2022-08-28T11:42:37.972Z,6.23
2022-08-28T11:46:06.343Z,8.50
2022-08-28T11:48:56.571Z,7.23
2022-08-28T11:52:02.259Z,7.33
2022-08-28T11:54:57.765Z,9.40
2022-08-28T12:00:52.890Z,6.60
2022-08-28T12:03:44.618Z,6.60
2022-08-28T12:07:15.907Z,6.80
2022-08-28T12:10:46.349Z,15.13
2022-08-28T12:13:54.919Z,6.80
2022-08-28T12:17:17.973Z,7.37
2022-08-28T12:20:10.273Z,7.10
2022-08-28T12:23:02.933Z,6.30
2022-08-28T12:25:59.033Z,7.27
2022-08-28T12:28:51.711Z,6.20
2022-08-28T12:32:12.479Z,6.63
2022-08-28T12:35:22.117Z,7.07
2022-08-28T12:38:19.288Z,6.57
2022-08-28T12:41:16.900Z,5.53
2022-08-28T12:44:10.600Z,7.07
2022-08-28T12:46:59.496Z,6.30
2022-08-28T12:49:48.033Z,5.87
2022-08-28T12:52:36.967Z,6.40
2022-08-28T12:55:26.005Z,6.20
2022-08-28T12:58:14.777Z,6.10
2022-08-28T13:01:09.047Z,5.93
2022-08-28T13:04:00.365Z,5.80
2022-08-28T13:06:48.960Z,8.00
2022-08-28T13:09:37.937Z,6.63
2022-08-28T13:12:37.766Z,5.90
2022-08-28T13:15:53.402Z,5.60
2022-08-28T13:18:52.100Z,6.13
2022-08-28T13:21:58.453Z,5.83
2022-08-28T13:24:48.447Z,7.20
2022-08-28T13:27:38.538Z,7.87
2022-08-28T13:30:31.674Z,6.10
2022-08-28T13:33:22.518Z,6.63
2022-08-28T13:36:24.702Z,6.17
2022-08-28T13:39:14.264Z,6.57
2022-08-28T13:42:08.263Z,5.90
2022-08-28T13:44:56.834Z,5.73
2022-08-28T13:47:45.352Z,6.03
2022-08-28T13:50:34.111Z,7.03
2022-08-28T13:53:24.122Z,6.30
2022-08-28T13:56:12.877Z,6.17
2022-08-28T13:59:01.446Z,7.20
2022-08-28T14:02:09.070Z,6.67
2022-08-28T14:04:57.739Z,6.00
2022-08-28T14:07:46.430Z,6.10
2022-08-28T14:10:36.458Z,7.23
2022-08-28T14:13:27.556Z,5.53
2022-08-28T14:16:16.837Z,5.83
2022-08-28T14:19:06.479Z,6.93
2022-08-28T14:21:55.273Z,7.10
2022-08-28T14:24:44.901Z,6.10
2022-08-28T14:27:34.835Z,7.40
2022-08-28T14:30:23.995Z,5.90
2022-08-28T14:33:14.964Z,5.40
2022-08-28T14:36:04.113Z,6.27
2022-08-28T14:38:54.531Z,6.07
2022-08-28T14:41:44.196Z,5.93
2022-08-28T14:44:34.167Z,6.13
2022-08-28T14:47:22.851Z,6.20
2022-08-28T14:50:12.015Z,6.10
2022-08-28T14:53:00.605Z,5.50
2022-08-28T14:55:50.801Z,5.30
2022-08-28T14:58:39.506Z,7.57
2022-08-28T15:01:40.220Z,6.40
2022-08-28T15:04:34.413Z,5.90
2022-08-28T15:07:23.264Z,6.53
2022-08-28T15:10:12.729Z,5.80
2022-08-28T15:13:01.344Z,5.80
2022-08-28T15:15:50.257Z,6.60
2022-08-28T15:18:40.292Z,6.03
2022-08-28T15:21:32.155Z,6.43
2022-08-28T15:24:22.666Z,5.90
2022-08-28T15:27:11.664Z,6.23
2022-08-28T15:30:00.317Z,6.50
2022-08-28T15:32:49.776Z,5.33
2022-08-28T15:35:39.871Z,6.17
2022-08-28T15:38:28.426Z,6.30
2022-08-28T15:41:24.871Z,5.77
2022-08-28T15:44:15.121Z,6.03
2022-08-28T15:47:04.871Z,5.23
2022-08-28T15:49:56.011Z,5.87
2022-08-28T15:52:47.157Z,6.07
2022-08-28T15:55:36.748Z,8.83
2022-08-28T15:58:25.622Z,5.37
2022-08-28T16:01:14.554Z,5.03
2022-08-28T16:04:03.458Z,6.17
2022-08-28T16:06:56.610Z,5.60
2022-08-28T16:09:50.936Z,6.47
2022-08-28T16:12:40.102Z,5.77
2022-08-28T16:15:29.339Z,5.93
2022-08-28T16:18:18.312Z,5.70
2022-08-28T16:21:07.400Z,6.03
2022-08-28T16:23:56.080Z,7.37
2022-08-28T16:26:46.368Z,5.60
2022-08-28T16:29:35.928Z,5.50
2022-08-28T16:32:25.791Z,6.77
2022-08-28T16:35:14.864Z,6.23
2022-08-28T16:38:03.469Z,7.33
2022-08-28T16:40:52.080Z,6.37
2022-08-28T16:43:42.164Z,5.80
2022-08-28T16:46:31.894Z,6.17
2022-08-28T16:49:20.559Z,5.77
2022-08-28T16:52:09.129Z,6.27
2022-08-28T16:54:58.489Z,5.57
2022-08-28T16:57:47.082Z,5.30
2022-08-28T17:00:37.132Z,5.50
2022-08-28T17:03:41.759Z,6.10
2022-08-28T17:06:32.189Z,5.20
2022-08-28T17:09:20.950Z,4.90
2022-08-28T17:12:09.850Z,5.03
2022-08-28T17:15:00.549Z,7.00
2022-08-28T17:17:51.327Z,5.67
2022-08-28T17:20:57.070Z,4.90
2022-08-28T17:23:46.465Z,5.87
2022-08-28T17:26:35.060Z,5.90
2022-08-28T17:29:23.844Z,4.93
2022-08-28T17:32:14.530Z,6.00
2022-08-28T17:35:05.454Z,5.67
2022-08-28T17:37:55.597Z,7.53
2022-08-28T17:40:44.313Z,6.50
2022-08-28T17:43:33.070Z,7.90
2022-08-28T17:46:21.738Z,6.53
2022-08-28T17:49:10.431Z,6.67
2022-08-28T17:52:00.518Z,6.63
2022-08-28T17:54:49.007Z,9.80
2022-08-28T17:57:37.590Z,5.80
2022-08-28T18:00:26.642Z,6.20
2022-08-28T18:03:15.297Z,6.23
2022-08-28T18:06:04.749Z,6.63
2022-08-28T18:08:55.778Z,9.67
2022-08-28T18:11:44.398Z,7.10
2022-08-28T18:14:34.085Z,6.87
2022-08-28T18:17:23.218Z,7.33
2022-08-28T18:20:12.436Z,7.13
2022-08-28T18:23:01.066Z,7.00
2022-08-28T18:25:52.840Z,7.23
2022-08-28T18:28:41.470Z,6.80
2022-08-28T18:31:31.093Z,7.63
2022-08-28T18:34:19.834Z,8.30
2022-08-28T18:37:08.636Z,7.63
2022-08-28T18:39:57.245Z,8.27
2022-08-28T18:42:48.049Z,8.03
2022-08-28T18:45:36.771Z,7.80
2022-08-28T18:48:25.425Z,7.50
2022-08-28T18:51:14.710Z,7.93
2022-08-28T18:54:10.290Z,8.33
2022-08-28T18:57:04.425Z,7.50
2022-08-28T18:59:55.743Z,8.07
2022-08-28T19:02:44.752Z,8.80
2022-08-28T19:05:34.532Z,7.93
2022-08-28T19:08:23.044Z,7.30
2022-08-28T19:11:12.973Z,7.63
2022-08-28T19:14:03.967Z,8.40
2022-08-28T19:16:55.560Z,8.23
2022-08-28T19:19:44.091Z,9.97
2022-08-28T19:22:32.817Z,9.13
2022-08-28T19:25:28.277Z,7.73
2022-08-28T19:28:17.357Z,9.40
2022-08-28T19:31:08.994Z,8.83
2022-08-28T19:33:58.993Z,7.83
2022-08-28T19:36:47.611Z,8.43
2022-08-28T19:39:36.166Z,11.00
2022-08-28T19:42:25.057Z,8.37
2022-08-28T19:45:15.323Z,8.67
2022-08-28T19:48:04.331Z,8.63
2022-08-28T19:51:04.456Z,9.77
2022-08-28T19:53:58.008Z,9.10
2022-08-28T19:56:47.460Z,10.20
2022-08-28T19:59:36.416Z,8.30
2022-08-28T20:02:25.006Z,10.47
2022-08-28T20:05:13.678Z,9.83
2022-08-28T20:08:03.924Z,9.20
2022-08-28T20:10:53.060Z,10.03
2022-08-28T20:13:41.623Z,9.47
2022-08-28T20:16:30.280Z,8.93
2022-08-28T20:19:19.859Z,10.27
2022-08-28T20:22:08.451Z,10.80
2022-08-28T20:24:58.342Z,9.90
2022-08-28T20:27:46.956Z,14.50
2022-08-28T20:30:35.542Z,11.00
2022-08-28T20:33:24.198Z,11.63
2022-08-28T20:36:16.202Z,10.23
2022-08-28T20:39:10.315Z,9.43
2022-08-28T20:42:00.259Z,9.50
2022-08-28T20:44:48.766Z,10.67
2022-08-28T20:47:37.465Z,9.80
2022-08-28T20:50:26.624Z,10.67
2022-08-28T20:53:15.208Z,10.37
2022-08-28T20:56:23.762Z,9.60
2022-08-28T20:59:14.017Z,10.87
2022-08-28T21:02:05.240Z,10.87
2022-08-28T21:04:54.466Z,10.80
2022-08-28T21:07:42.983Z,10.80
2022-08-28T21:10:31.520Z,9.90
2022-08-28T21:13:20.067Z,10.83
2022-08-28T21:16:10.048Z,11.23
2022-08-28T21:19:15.289Z,11.40
2022-08-28T21:22:05.627Z,10.40
2022-08-28T21:24:54.644Z,11.87
2022-08-28T21:27:43.276Z,11.53
2022-08-28T21:30:31.955Z,9.40
2022-08-28T21:33:22.113Z,11.67
2022-08-28T21:36:11.511Z,10.37
2022-08-28T21:39:00.028Z,11.77
2022-08-28T21:41:48.819Z,10.20
2022-08-28T21:44:38.762Z,11.27
2022-08-28T21:47:27.535Z,10.60
2022-08-28T21:50:17.551Z,10.23
2022-08-28T21:53:06.180Z,11.27
2022-08-28T21:55:55.622Z,11.80
2022-08-28T21:58:44.671Z,10.50
2022-08-28T22:01:33.375Z,10.67
2022-08-28T22:04:22.241Z,11.70
2022-08-28T22:07:13.987Z,10.77
2022-08-28T22:10:02.585Z,12.87
2022-08-28T22:12:51.408Z,13.23
2022-08-28T22:15:40.568Z,13.00
2022-08-28T22:18:32.066Z,11.73
2022-08-28T22:21:43.151Z,11.77
2022-08-28T22:24:33.056Z,12.07
2022-08-28T22:27:21.648Z,12.13
2022-08-28T22:30:11.149Z,12.37
2022-08-28T22:32:59.649Z,11.70
2022-08-28T22:35:49.784Z,12.10
2022-08-28T22:38:39.254Z,13.17
2022-08-28T22:41:29.408Z,15.73
2022-08-28T22:44:17.913Z,12.80
2022-08-28T22:47:07.244Z,12.27
2022-08-28T22:49:56.298Z,11.10
2022-08-28T22:52:47.103Z,14.13
2022-08-28T22:55:40.016Z,13.57
2022-08-28T22:58:33.624Z,13.03
2022-08-28T23:01:24.477Z,15.00
2022-08-28T23:04:13.270Z,13.33
2022-08-28T23:07:01.787Z,11.93
2022-08-28T23:09:50.327Z,14.80
2022-08-28T23:12:39.543Z,13.97
2022-08-28T23:15:29.511Z,12.40
2022-08-28T23:18:18.458Z,12.03
2022-08-28T23:21:08.219Z,14.60
2022-08-28T23:23:58.608Z,13.20
2022-08-28T23:26:47.835Z,11.87
2022-08-28T23:29:36.368Z,13.20
2022-08-28T23:32:26.260Z,12.37
2022-08-28T23:35:15.958Z,12.10
2022-08-28T23:38:05.213Z,12.43
2022-08-28T23:40:54.368Z,12.10
2022-08-28T23:43:42.888Z,11.87
2022-08-28T23:46:31.662Z,13.27
2022-08-28T23:49:26.252Z,12.07
2022-08-28T23:52:15.409Z,10.73
2022-08-28T23:55:05.003Z,12.37
2022-08-28T23:57:54.275Z,11.60
